createdAt,value
2017-12-03T00:00:57.499Z,34.10
2017-12-03T00:03:26.609Z,33.83
2017-12-03T00:05:54.931Z,33.27
2017-12-03T00:08:23.305Z,34.30
2017-12-03T00:10:52.338Z,38.87
2017-12-03T00:13:21.418Z,34.47
2017-12-03T00:15:49.794Z,37.23
2017-12-03T00:18:18.115Z,31.50
2017-12-03T00:20:46.435Z,35.70
2017-12-03T00:23:14.778Z,34.07
2017-12-03T00:25:43.095Z,35.27
2017-12-03T00:28:11.442Z,34.07
2017-12-03T00:30:39.760Z,38.90
2017-12-03T00:33:08.112Z,34.73
2017-12-03T00:35:36.447Z,44.87
2017-12-03T00:38:04.767Z,41.87
2017-12-03T00:40:33.115Z,40.13
2017-12-03T00:43:01.428Z,38.70
2017-12-03T00:45:30.516Z,41.50
2017-12-03T00:47:58.883Z,39.27
2017-12-03T00:50:27.203Z,39.33
2017-12-03T00:52:55.520Z,38.30
2017-12-03T00:55:23.882Z,41.57
2017-12-03T00:57:52.216Z,38.43
2017-12-03T01:00:20.563Z,39.40
2017-12-03T01:02:48.888Z,39.83
2017-12-03T01:05:17.211Z,39.23
2017-12-03T01:07:45.552Z,38.17
2017-12-03T01:10:14.645Z,39.47
2017-12-03T01:12:43.756Z,36.00
2017-12-03T01:15:12.082Z,38.97
2017-12-03T01:17:40.456Z,40.83
2017-12-03T01:20:08.779Z,39.30
2017-12-03T01:22:37.913Z,38.93
2017-12-03T01:25:06.295Z,35.20
2017-12-03T01:27:34.629Z,39.00
2017-12-03T01:30:03.723Z,38.27
2017-12-03T01:32:32.091Z,35.50
2017-12-03T01:35:00.417Z,36.03
2017-12-03T01:37:28.756Z,35.03
2017-12-03T01:39:57.871Z,35.43
2017-12-03T01:42:26.989Z,36.47
2017-12-03T01:44:55.340Z,35.60
2017-12-03T01:47:24.454Z,35.13
2017-12-03T01:49:52.797Z,35.37
2017-12-03T01:52:21.124Z,33.23
2017-12-03T01:54:49.455Z,32.67
2017-12-03T01:57:18.580Z,32.10
2017-12-03T01:59:46.904Z,32.00
2017-12-03T02:02:15.228Z,32.27
2017-12-03T02:04:43.605Z,29.10
2017-12-03T02:07:11.935Z,29.37
2017-12-03T02:09:40.279Z,31.10
2017-12-03T02:12:08.600Z,27.80
2017-12-03T02:14:36.947Z,28.13
2017-12-03T02:17:05.300Z,28.77
2017-12-03T02:19:33.643Z,29.20
2017-12-03T02:22:01.963Z,28.10
2017-12-03T02:24:30.330Z,29.07
2017-12-03T02:26:58.667Z,29.20
2017-12-03T02:29:26.991Z,29.60
2017-12-03T02:31:55.343Z,28.53
2017-12-03T02:34:24.460Z,29.80
2017-12-03T02:36:52.830Z,27.90
2017-12-03T02:39:21.917Z,31.67
2017-12-03T02:41:51.026Z,28.20
2017-12-03T02:44:20.116Z,27.93
2017-12-03T02:46:48.475Z,25.37
2017-12-03T02:49:16.800Z,27.20
2017-12-03T02:51:45.139Z,28.40
2017-12-03T02:54:14.251Z,27.63
2017-12-03T02:56:43.364Z,24.73
2017-12-03T02:59:11.725Z,25.53
2017-12-03T03:01:40.073Z,27.87
2017-12-03T03:04:08.427Z,24.93
2017-12-03T03:06:37.519Z,25.90
2017-12-03T03:09:05.855Z,24.23
2017-12-03T03:11:34.204Z,22.17
2017-12-03T03:14:02.536Z,21.80
2017-12-03T03:16:30.889Z,21.80
2017-12-03T03:18:59.212Z,22.20
2017-12-03T03:21:27.550Z,23.00
2017-12-03T03:23:55.876Z,21.07
2017-12-03T03:26:24.242Z,23.10
2017-12-03T03:28:52.565Z,21.60
2017-12-03T03:31:21.714Z,20.40
2017-12-03T03:33:50.045Z,20.20
2017-12-03T03:36:19.144Z,20.23
2017-12-03T03:38:48.264Z,19.70
2017-12-03T03:41:16.595Z,22.20
2017-12-03T03:43:44.924Z,18.37
2017-12-03T03:46:13.267Z,18.60
2017-12-03T03:48:42.365Z,20.40
2017-12-03T03:51:11.475Z,19.77
2017-12-03T03:53:39.799Z,20.50
2017-12-03T03:56:08.158Z,18.33
2017-12-03T03:58:36.484Z,18.90
2017-12-03T04:01:05.573Z,18.60
2017-12-03T04:03:33.933Z,18.00
2017-12-03T04:06:02.263Z,17.70
2017-12-03T04:08:30.583Z,18.30
2017-12-03T04:10:58.929Z,17.37
2017-12-03T04:13:27.272Z,18.53
2017-12-03T04:15:56.395Z,17.27
2017-12-03T04:18:24.721Z,19.70
2017-12-03T04:20:53.045Z,17.20
2017-12-03T04:23:21.441Z,16.43
2017-12-03T04:25:49.800Z,18.13
2017-12-03T04:28:18.124Z,19.20
2017-12-03T04:30:46.455Z,18.30
2017-12-03T04:33:14.804Z,18.33
2017-12-03T04:35:43.132Z,18.60
2017-12-03T04:38:11.464Z,15.17
2017-12-03T04:40:39.826Z,17.40
2017-12-03T04:43:08.152Z,19.17
2017-12-03T04:45:36.481Z,19.73
2017-12-03T04:48:04.856Z,20.10
2017-12-03T04:50:33.181Z,20.77
2017-12-03T04:53:01.529Z,19.93
2017-12-03T04:55:30.623Z,19.50
2017-12-03T04:57:59.188Z,21.20
2017-12-03T05:00:27.526Z,19.57
2017-12-03T05:02:55.867Z,19.60
2017-12-03T05:05:24.979Z,19.70
2017-12-03T05:07:54.091Z,20.10
2017-12-03T05:10:22.414Z,19.37
2017-12-03T05:12:50.742Z,20.73
2017-12-03T05:15:19.091Z,22.07
2017-12-03T05:17:47.424Z,22.60
2017-12-03T05:20:15.754Z,20.00
2017-12-03T05:22:44.860Z,22.33
2017-12-03T05:25:13.980Z,20.00
2017-12-03T05:27:42.347Z,20.53
2017-12-03T05:30:10.685Z,22.20
2017-12-03T05:32:39.019Z,21.70
2017-12-03T05:35:07.363Z,22.30
2017-12-03T05:37:36.444Z,22.33
2017-12-03T05:40:04.788Z,23.60
2017-12-03T05:42:33.119Z,23.17
2017-12-03T05:45:01.481Z,21.30
2017-12-03T05:47:29.811Z,24.13
2017-12-03T05:49:58.126Z,21.93
2017-12-03T05:52:26.465Z,20.60
2017-12-03T05:54:54.775Z,23.10
2017-12-03T05:57:23.116Z,22.70
2017-12-03T05:59:51.460Z,21.50
2017-12-03T06:02:20.567Z,21.73
2017-12-03T06:04:48.919Z,23.07
2017-12-03T06:07:18.012Z,24.50
2017-12-03T06:09:47.106Z,23.77
2017-12-03T06:12:15.451Z,23.97
2017-12-03T06:14:43.771Z,22.57
2017-12-03T06:17:12.875Z,26.40
2017-12-03T06:19:41.992Z,24.70
2017-12-03T06:22:10.332Z,25.33
2017-12-03T06:24:39.445Z,23.80
2017-12-03T06:27:08.544Z,24.40
2017-12-03T06:29:36.900Z,24.10
2017-12-03T06:32:05.220Z,24.47
2017-12-03T06:34:33.536Z,25.57
2017-12-03T06:37:01.929Z,24.60
2017-12-03T06:39:30.246Z,23.97
2017-12-03T06:41:58.569Z,24.53
2017-12-03T06:44:26.914Z,24.90
2017-12-03T06:46:55.263Z,23.00
2017-12-03T06:49:24.348Z,23.73
2017-12-03T06:51:53.441Z,25.60
2017-12-03T06:54:22.567Z,25.87
2017-12-03T06:56:50.882Z,22.73
2017-12-03T06:59:19.196Z,23.73
2017-12-03T07:01:48.310Z,23.13
2017-12-03T07:04:16.638Z,23.00
2017-12-03T07:06:44.952Z,24.80
2017-12-03T07:09:14.065Z,23.97
2017-12-03T07:11:42.422Z,23.93
2017-12-03T07:14:10.740Z,24.40
2017-12-03T07:16:39.088Z,23.73
2017-12-03T07:19:07.439Z,23.23
2017-12-03T07:21:35.759Z,21.60
2017-12-03T07:24:04.087Z,21.50
2017-12-03T07:26:32.429Z,23.67
2017-12-03T07:29:00.751Z,21.50
2017-12-03T07:31:29.119Z,23.60
2017-12-03T07:33:57.431Z,22.57
2017-12-03T07:36:25.758Z,22.10
2017-12-03T07:38:54.876Z,20.90
2017-12-03T07:41:23.192Z,20.87
2017-12-03T07:43:51.512Z,21.93
2017-12-03T07:46:19.873Z,21.33
2017-12-03T07:48:48.193Z,21.63
2017-12-03T07:51:16.580Z,20.57
2017-12-03T07:53:45.696Z,20.83
2017-12-03T07:56:14.076Z,20.70
2017-12-03T07:58:42.410Z,20.83
2017-12-03T08:01:10.743Z,21.20
2017-12-03T08:03:39.106Z,19.10
2017-12-03T08:06:07.440Z,21.93
2017-12-03T08:08:35.754Z,18.20
2017-12-03T08:11:04.875Z,17.40
2017-12-03T08:13:33.260Z,18.90
2017-12-03T08:16:01.590Z,17.93
2017-12-03T08:18:30.818Z,19.10
2017-12-03T08:20:59.139Z,18.27
2017-12-03T08:23:27.467Z,19.27
2017-12-03T08:25:55.813Z,18.63
2017-12-03T08:28:24.159Z,19.43
2017-12-03T08:30:52.500Z,17.80
2017-12-03T08:33:20.826Z,18.93
2017-12-03T08:35:49.168Z,18.23
2017-12-03T08:38:17.527Z,16.57
2017-12-03T08:40:45.877Z,17.43
2017-12-03T08:43:14.201Z,18.17
2017-12-03T08:45:42.559Z,18.13
2017-12-03T08:48:11.653Z,22.67
2017-12-03T08:50:40.743Z,19.90
2017-12-03T08:53:09.855Z,19.10
2017-12-03T08:55:38.182Z,18.13
2017-12-03T08:58:06.512Z,17.70
2017-12-03T09:00:34.881Z,17.40
2017-12-03T09:03:03.971Z,16.33
2017-12-03T09:05:33.063Z,17.63
2017-12-03T09:08:02.167Z,17.63
2017-12-03T09:10:31.281Z,16.90
2017-12-03T09:12:59.607Z,17.10
2017-12-03T09:15:27.964Z,17.13
2017-12-03T09:17:56.309Z,17.50
2017-12-03T09:20:24.640Z,20.43
2017-12-03T09:22:52.996Z,17.77
2017-12-03T09:25:21.355Z,18.17
2017-12-03T09:27:49.726Z,18.67
2017-12-03T09:30:18.121Z,16.97
2017-12-03T09:32:46.920Z,18.23
2017-12-03T09:35:15.318Z,17.50
2017-12-03T09:37:43.708Z,16.73
2017-12-03T09:40:12.055Z,17.10
2017-12-03T09:42:40.370Z,17.40
2017-12-03T09:45:08.799Z,22.53
2017-12-03T09:47:37.140Z,16.60
2017-12-03T09:50:06.310Z,16.67
2017-12-03T09:52:34.629Z,15.90
2017-12-03T09:55:02.968Z,16.60
2017-12-03T09:57:31.327Z,16.00
2017-12-03T10:00:00.440Z,16.73
2017-12-03T10:02:29.188Z,16.13
2017-12-03T10:04:57.539Z,16.00
2017-12-03T10:07:26.658Z,17.50
2017-12-03T10:09:55.002Z,15.40
2017-12-03T10:12:24.924Z,15.77
2017-12-03T10:14:54.077Z,14.57
2017-12-03T10:17:22.412Z,14.20
2017-12-03T10:19:50.736Z,13.97
2017-12-03T10:22:19.132Z,13.57
2017-12-03T10:24:47.460Z,13.63
2017-12-03T10:27:15.799Z,13.30
2017-12-03T10:29:44.168Z,13.63
2017-12-03T10:32:12.500Z,12.70
2017-12-03T10:34:40.957Z,13.10
2017-12-03T10:37:10.068Z,11.80
2017-12-03T10:39:38.425Z,11.57
2017-12-03T10:42:07.506Z,11.57
2017-12-03T10:44:35.829Z,11.93
2017-12-03T10:47:04.174Z,11.27
2017-12-03T10:49:33.260Z,28.13
2017-12-03T10:52:02.381Z,10.23
2017-12-03T10:54:30.732Z,10.60
2017-12-03T10:56:59.052Z,10.07
2017-12-03T10:59:27.379Z,10.17
2017-12-03T11:01:55.736Z,10.80
2017-12-03T11:04:24.063Z,10.83
2017-12-03T11:06:53.152Z,10.40
2017-12-03T11:09:22.272Z,10.93
2017-12-03T11:11:50.625Z,11.00
2017-12-03T11:14:19.730Z,10.30
2017-12-03T11:16:48.059Z,9.67
2017-12-03T11:19:16.388Z,11.40
2017-12-03T11:21:44.723Z,10.93
2017-12-03T11:24:13.063Z,11.60
2017-12-03T11:26:41.376Z,10.63
2017-12-03T11:29:10.175Z,10.43
2017-12-03T11:31:38.700Z,10.37
2017-12-03T11:34:07.028Z,10.30
2017-12-03T11:36:35.397Z,10.43
2017-12-03T11:39:04.504Z,11.00
2017-12-03T11:41:32.833Z,9.57
2017-12-03T11:44:01.253Z,11.03
2017-12-03T11:46:29.596Z,9.50
2017-12-03T11:48:57.969Z,10.50
2017-12-03T11:51:26.288Z,11.10
2017-12-03T11:53:54.635Z,11.57
2017-12-03T11:56:22.983Z,10.53
2017-12-03T11:58:52.092Z,10.43
2017-12-03T12:01:21.178Z,10.23
2017-12-03T12:03:50.301Z,10.90
2017-12-03T12:06:18.624Z,12.03
2017-12-03T12:08:46.970Z,10.93
2017-12-03T12:11:15.316Z,11.20
2017-12-03T12:13:43.644Z,11.80
2017-12-03T12:16:11.971Z,11.60
2017-12-03T12:18:40.327Z,10.80
2017-12-03T12:21:09.403Z,12.37
2017-12-03T12:23:37.735Z,12.13
2017-12-03T12:26:06.080Z,12.60
2017-12-03T12:28:35.192Z,12.13
2017-12-03T12:31:03.569Z,12.90
2017-12-03T12:33:31.896Z,12.80
2017-12-03T12:36:00.221Z,14.20
2017-12-03T12:38:28.564Z,13.47
2017-12-03T12:40:56.887Z,13.80
2017-12-03T12:43:25.200Z,13.67
2017-12-03T12:45:53.549Z,14.53
2017-12-03T12:48:21.876Z,11.63
2017-12-03T12:50:50.244Z,12.30
2017-12-03T12:53:18.563Z,11.90
2017-12-03T12:55:47.642Z,11.27
2017-12-03T12:58:15.991Z,12.10
2017-12-03T13:00:44.484Z,12.50
2017-12-03T13:03:12.804Z,13.83
2017-12-03T13:05:41.165Z,12.53
2017-12-03T13:08:10.255Z,12.20
2017-12-03T13:10:39.603Z,12.20
2017-12-03T13:13:07.956Z,12.93
2017-12-03T13:15:36.529Z,13.10
2017-12-03T13:18:05.635Z,11.53
2017-12-03T13:20:33.968Z,12.77
2017-12-03T13:23:02.315Z,12.30
2017-12-03T13:25:30.653Z,11.23
2017-12-03T13:27:59.788Z,12.57
2017-12-03T13:30:28.117Z,12.70
2017-12-03T13:32:56.452Z,12.50
2017-12-03T13:35:24.821Z,13.27
2017-12-03T13:37:53.144Z,13.67
2017-12-03T13:40:21.465Z,13.30
2017-12-03T13:42:49.820Z,13.80
2017-12-03T13:45:18.157Z,13.53
2017-12-03T13:47:46.527Z,12.90
2017-12-03T13:50:14.855Z,13.60
2017-12-03T13:52:43.945Z,13.83
2017-12-03T13:55:12.340Z,13.67
2017-12-03T13:57:40.671Z,12.70
2017-12-03T14:00:08.993Z,12.30
2017-12-03T14:02:38.115Z,11.70
2017-12-03T14:05:06.439Z,12.40
2017-12-03T14:07:34.769Z,13.50
2017-12-03T14:10:03.124Z,11.67
2017-12-03T14:12:31.440Z,12.00
2017-12-03T14:14:59.757Z,11.73
2017-12-03T14:17:28.109Z,11.10
2017-12-03T14:19:56.451Z,13.37
2017-12-03T14:22:24.760Z,11.50
2017-12-03T14:24:53.120Z,13.20
2017-12-03T14:27:21.690Z,12.60
2017-12-03T14:29:50.052Z,11.37
2017-12-03T14:32:18.391Z,11.53
2017-12-03T14:34:46.740Z,9.70
2017-12-03T14:37:15.056Z,10.30
2017-12-03T14:39:43.385Z,11.70
2017-12-03T14:42:11.742Z,11.20
2017-12-03T14:44:40.866Z,12.27
2017-12-03T14:47:09.201Z,10.40
2017-12-03T14:49:38.311Z,11.90
2017-12-03T14:52:06.674Z,15.90
2017-12-03T14:54:35.758Z,12.83
2017-12-03T14:57:04.075Z,13.00
2017-12-03T14:59:32.436Z,11.03
2017-12-03T15:02:01.515Z,11.10
2017-12-03T15:04:29.835Z,12.20
2017-12-03T15:06:58.186Z,12.17
2017-12-03T15:09:27.263Z,11.60
2017-12-03T15:11:55.588Z,12.30
2017-12-03T15:14:24.785Z,10.47
2017-12-03T15:16:53.169Z,11.80
2017-12-03T15:19:22.207Z,11.80
2017-12-03T15:21:50.544Z,10.30
2017-12-03T15:24:18.883Z,12.37
2017-12-03T15:26:47.967Z,11.40
2017-12-03T15:29:17.080Z,10.37
2017-12-03T15:31:45.410Z,11.80
2017-12-03T15:34:13.763Z,10.33
2017-12-03T15:36:42.116Z,11.43
2017-12-03T15:39:10.913Z,11.17
2017-12-03T15:41:39.283Z,10.30
2017-12-03T15:44:07.599Z,9.70
2017-12-03T15:46:35.935Z,10.37
2017-12-03T15:49:04.284Z,11.10
2017-12-03T15:51:32.640Z,10.90
2017-12-03T15:54:00.963Z,10.70
2017-12-03T15:56:30.053Z,12.47
2017-12-03T15:58:59.152Z,12.20
2017-12-03T16:01:28.245Z,12.50
2017-12-03T16:03:57.356Z,11.87
2017-12-03T16:06:25.694Z,12.53
2017-12-03T16:08:54.037Z,12.90
2017-12-03T16:11:22.352Z,12.97
2017-12-03T16:13:50.695Z,12.50
2017-12-03T16:16:19.013Z,12.03
2017-12-03T16:18:47.360Z,12.60
2017-12-03T16:21:15.692Z,12.07
2017-12-03T16:23:44.769Z,11.30
2017-12-03T16:26:13.125Z,12.97
2017-12-03T16:28:41.451Z,12.10
2017-12-03T16:31:09.775Z,11.10
2017-12-03T16:33:38.128Z,10.40
2017-12-03T16:36:06.447Z,11.37
2017-12-03T16:38:34.836Z,11.57
2017-12-03T16:41:03.164Z,11.83
2017-12-03T16:43:31.495Z,12.40
2017-12-03T16:45:59.911Z,11.10
2017-12-03T16:48:28.263Z,11.63
2017-12-03T16:50:57.352Z,10.63
2017-12-03T16:53:26.439Z,10.77
2017-12-03T16:55:54.800Z,9.13
2017-12-03T16:58:23.139Z,9.17
2017-12-03T17:00:52.042Z,8.23
2017-12-03T17:03:20.374Z,8.90
2017-12-03T17:05:49.459Z,8.67
2017-12-03T17:08:17.795Z,9.30
2017-12-03T17:10:46.127Z,8.87
2017-12-03T17:13:15.291Z,8.53
2017-12-03T17:15:43.608Z,8.93
2017-12-03T17:18:12.689Z,9.03
2017-12-03T17:20:41.835Z,10.43
2017-12-03T17:23:10.147Z,9.70
2017-12-03T17:25:38.476Z,10.50
2017-12-03T17:28:06.814Z,10.50
2017-12-03T17:30:35.167Z,10.90
2017-12-03T17:33:03.519Z,11.60
2017-12-03T17:35:31.851Z,11.40
2017-12-03T17:38:00.179Z,11.63
2017-12-03T17:40:28.541Z,12.00
2017-12-03T17:42:56.860Z,12.97
2017-12-03T17:45:25.183Z,13.20
2017-12-03T17:47:54.295Z,13.40
2017-12-03T17:50:22.612Z,12.57
2017-12-03T17:52:50.960Z,13.23
2017-12-03T17:55:19.287Z,13.13
2017-12-03T17:57:47.608Z,13.43
2017-12-03T18:00:15.952Z,14.50
2017-12-03T18:02:45.039Z,13.03
2017-12-03T18:05:13.396Z,15.20
2017-12-03T18:07:41.725Z,13.90
2017-12-03T18:10:10.065Z,14.63
2017-12-03T18:12:38.431Z,13.40
2017-12-03T18:15:06.777Z,12.80
2017-12-03T18:17:35.099Z,16.27
2017-12-03T18:20:03.501Z,14.03
2017-12-03T18:22:31.796Z,16.37
2017-12-03T18:25:00.120Z,13.37
2017-12-03T18:27:28.477Z,14.20
2017-12-03T18:29:56.791Z,14.77
2017-12-03T18:32:25.131Z,14.60
2017-12-03T18:34:53.450Z,14.70
2017-12-03T18:37:21.802Z,17.70
2017-12-03T18:39:50.127Z,15.20
2017-12-03T18:42:19.237Z,15.40
2017-12-03T18:44:47.571Z,17.60
2017-12-03T18:47:15.895Z,18.80
2017-12-03T18:49:44.262Z,17.63
2017-12-03T18:52:12.624Z,17.30
2017-12-03T18:54:41.714Z,16.90
2017-12-03T18:57:10.809Z,16.07
2017-12-03T18:59:39.184Z,17.53
2017-12-03T19:02:08.284Z,18.90
2017-12-03T19:04:37.379Z,20.30
2017-12-03T19:07:05.710Z,21.83
2017-12-03T19:09:34.033Z,17.87
2017-12-03T19:12:02.384Z,20.37
2017-12-03T19:14:30.706Z,21.60
2017-12-03T19:16:59.797Z,20.97
2017-12-03T19:19:28.931Z,22.47
2017-12-03T19:21:57.248Z,22.60
2017-12-03T19:24:25.588Z,22.47
2017-12-03T19:26:53.907Z,21.30
2017-12-03T19:29:22.260Z,21.70
2017-12-03T19:31:50.587Z,20.77
2017-12-03T19:34:18.907Z,20.57
2017-12-03T19:36:47.246Z,20.90
2017-12-03T19:39:15.604Z,18.63
2017-12-03T19:41:43.932Z,17.37
2017-12-03T19:44:12.268Z,17.07
2017-12-03T19:46:41.379Z,13.67
2017-12-03T19:49:09.711Z,15.27
2017-12-03T19:51:38.065Z,15.97
2017-12-03T19:54:06.416Z,15.83
2017-12-03T19:56:34.765Z,17.50
2017-12-03T19:59:03.887Z,15.17
2017-12-03T20:01:32.216Z,18.43
2017-12-03T20:04:00.559Z,18.10
2017-12-03T20:06:28.899Z,18.10
2017-12-03T20:08:58.002Z,18.47
2017-12-03T20:11:27.096Z,18.77
2017-12-03T20:13:56.196Z,18.43
2017-12-03T20:16:25.281Z,17.50
2017-12-03T20:18:54.396Z,18.83
2017-12-03T20:21:22.724Z,17.20
2017-12-03T20:23:51.039Z,17.80
2017-12-03T20:26:20.161Z,18.63
2017-12-03T20:28:48.515Z,17.30
2017-12-03T20:31:17.624Z,17.80
2017-12-03T20:33:45.949Z,19.70
2017-12-03T20:36:14.354Z,20.00
2017-12-03T20:38:43.465Z,18.30
2017-12-03T20:41:12.548Z,22.20
2017-12-03T20:43:41.668Z,22.20
2017-12-03T20:46:10.005Z,20.80
2017-12-03T20:48:38.369Z,21.63
2017-12-03T20:51:07.459Z,24.30
2017-12-03T20:53:36.544Z,20.70
2017-12-03T20:56:04.888Z,22.97
2017-12-03T20:58:33.974Z,21.10
2017-12-03T21:01:03.099Z,20.57
2017-12-03T21:03:31.429Z,23.00
2017-12-03T21:06:00.533Z,21.30
2017-12-03T21:08:29.680Z,23.70
2017-12-03T21:10:58.003Z,21.73
2017-12-03T21:13:26.335Z,23.40
2017-12-03T21:15:54.675Z,22.20
2017-12-03T21:18:23.813Z,23.30
2017-12-03T21:20:52.875Z,22.60
2017-12-03T21:23:21.987Z,24.70
2017-12-03T21:25:50.339Z,25.90
2017-12-03T21:28:19.456Z,25.30
2017-12-03T21:30:47.768Z,23.93
2017-12-03T21:33:16.116Z,26.63
2017-12-03T21:35:44.431Z,26.13
2017-12-03T21:38:12.767Z,23.73
2017-12-03T21:40:41.112Z,24.67
2017-12-03T21:43:10.198Z,21.87
2017-12-03T21:45:38.557Z,24.80
2017-12-03T21:48:06.967Z,23.23
2017-12-03T21:50:35.306Z,24.03
2017-12-03T21:53:03.623Z,21.60
2017-12-03T21:55:32.755Z,23.63
2017-12-03T21:58:01.108Z,24.13
2017-12-03T22:00:30.217Z,24.10
2017-12-03T22:02:58.549Z,22.40
2017-12-03T22:05:26.909Z,23.47
2017-12-03T22:07:55.234Z,22.97
2017-12-03T22:10:24.359Z,24.60
2017-12-03T22:12:52.676Z,23.43
2017-12-03T22:15:21.012Z,27.13
2017-12-03T22:17:49.351Z,25.73
2017-12-03T22:20:17.672Z,28.23
2017-12-03T22:22:46.036Z,28.17
2017-12-03T22:25:14.384Z,27.70
2017-12-03T22:27:42.731Z,29.83
2017-12-03T22:30:11.068Z,26.30
2017-12-03T22:32:39.460Z,28.60
2017-12-03T22:35:07.816Z,27.03
2017-12-03T22:37:36.895Z,30.10
2017-12-03T22:40:06.724Z,26.53
2017-12-03T22:42:35.859Z,32.17
2017-12-03T22:45:04.197Z,30.97
2017-12-03T22:47:33.294Z,31.07
2017-12-03T22:50:02.395Z,29.83
2017-12-03T22:52:30.744Z,29.10
2017-12-03T22:54:59.064Z,30.00
2017-12-03T22:57:27.380Z,32.53
2017-12-03T22:59:55.730Z,29.53
2017-12-03T23:02:24.063Z,29.33
2017-12-03T23:04:53.142Z,29.03
2017-12-03T23:07:21.487Z,28.77
2017-12-03T23:09:49.836Z,31.43
2017-12-03T23:12:18.152Z,30.37
2017-12-03T23:14:46.471Z,32.50
2017-12-03T23:17:15.633Z,32.10
2017-12-03T23:19:43.948Z,29.60
2017-12-03T23:22:13.032Z,30.50
2017-12-03T23:24:41.403Z,29.43
2017-12-03T23:27:09.711Z,33.40
2017-12-03T23:29:38.843Z,29.87
2017-12-03T23:32:07.163Z,27.80
2017-12-03T23:34:35.503Z,29.10
2017-12-03T23:37:03.848Z,26.47
2017-12-03T23:39:32.216Z,25.63
2017-12-03T23:42:01.327Z,26.03
2017-12-03T23:44:29.683Z,25.80
2017-12-03T23:46:58.781Z,27.53
2017-12-03T23:49:27.895Z,29.10
2017-12-03T23:51:56.236Z,28.83
2017-12-03T23:54:24.551Z,31.33
2017-12-03T23:56:52.898Z,32.57
2017-12-03T23:59:21.247Z,31.00
